Disclaimer

Please do not use the information listed here in-flight or in-navigation, as they are not provided to us by the airports but are provided by volunteers, so they might be outdated.

Search


Regions


Airport information page

Radio informations:
VOLGOGRAD TAXIIN - 119.0 MHz
VOLGOGRAD ATIS - 132.8 MHz
VOLGOGRAD KRUG - 122.0 MHz
VOLGOGRAD APP - 125.3 MHz

Airport informations:
Latitude: 48° 46' 57.10" N
Longitude: 044° 20' 43.96" E
Elevation: 482 feet - 147 meters
Operating hours: 24 hour operations
Operating agency: Civil government, landing fees and diplomatic clearance may be required
Timezone: UTC+3(+4DT) - Last Sunday in March to last Sunday in October
Fuel: N/A

Runway information:
08/26 - 1595 x 350 feet< - >486 x 107 meters
11/29 - 8202 x 161 feet< - >2500 x 49 meters
11R/29L - 5575 x 330 feet< - >1699 x 101 meters

Recent METARs:
URWW 122030Z 10008MPS 9999 -SN BLSN OVC028 M06/M15 Q1041 R06/010070 TEMPO 1000 SN BLSN OVC004
URWW 122100Z 10008MPS 8000 -SN BLSN OVC028 M06/M14 Q1041 R06/410160 TEMPO 1000 SN BLSN OVC004
URWW 122130Z 10007MPS 9999 -SN DRSN OVC029 M06/M14 Q1041 REBLSN R06/410160 TEMPO 10012G18MPS 1000 SN BLSN OVC004

Airport on the map: